Terminal Aerodrome Forecast
Issued by NWS Upton, NY

Home | Current Version | Previous Version | Text Only | Print | Product List | Glossary On
Versions: 1 2 3 4 5 6 7 8 9 10 11 12 13 14 15 16 17 18 19 20 21 22 23 24 25 26 27 28
000
FTUS41 KOKX 080530
TAFLGA
TAF
KLGA 080530Z 0806/0906 21008KT P6SM SCT040 BKN250
     FM081400 26010KT P6SM SCT040 OVC100
     FM081700 26010KT P6SM VCTS BKN040CB
     FM090200 35007KT P6SM BKN040=

USA.gov is the U.S. government's official web portal to all federal, state and local government web resources and services.